Time;durP1;ratioP1;P1;durP2;ratioP2;P2;SDS_P1;SDS_P2;PMS_P1;PMS_P2;Temp;Humidity;BMP_temperature;BMP_pressure;BME280_temperature;BME280_humidity;BME280_pressure;Samples;Min_cycle;Max_cycle;Signal;HPM_P1;HPM_P2
2023/03/18 00:01:27;;;;;;;2.20;1.50;;;;;;;-2.93;73.42;96134.83;106436;1278;22993;-67
2023/03/18 00:03:55;;;;;;;2.70;1.60;;;;;;;-2.94;73.83;96140.29;106446;1278;25679;-67
2023/03/18 00:06:23;;;;;;;3.00;2.10;;;;;;;-3.02;74.75;96138.23;106400;1278;25597;-67
2023/03/18 00:08:52;;;;;;;3.20;2.20;;;;;;;-3.16;75.24;96139.04;106438;1278;22534;-67
2023/03/18 00:11:20;;;;;;;4.30;2.40;;;;;;;-3.24;75.41;96139.02;106371;1278;22651;-67
2023/03/18 00:13:48;;;;;;;5.20;2.60;;;;;;;-3.23;74.83;96137.67;106363;1278;24358;-67
2023/03/18 00:16:17;;;;;;;3.50;1.80;;;;;;;-3.19;74.79;96137.17;106402;1278;25924;-67
2023/03/18 00:18:45;;;;;;;4.30;2.00;;;;;;;-3.18;74.61;96136.02;106382;1278;24103;-67
2023/03/18 00:21:15;;;;;;;3.90;1.90;;;;;;;-3.17;74.38;96135.38;106461;1274;22525;-67
2023/03/18 00:23:43;;;;;;;3.50;2.00;;;;;;;-3.18;74.18;96129.15;106425;1278;22531;-67
2023/03/18 00:26:11;;;;;;;3.10;1.90;;;;;;;-3.20;74.57;96128.70;106387;1278;25386;-67
2023/03/18 00:28:41;;;;;;;2.70;1.90;;;;;;;-3.24;74.22;96129.05;106448;1278;22523;-67
2023/03/18 00:31:12;;;;;;;5.10;2.60;;;;;;;-3.24;74.79;96129.76;106740;1278;25608;-67
2023/03/18 00:33:45;;;;;;;5.90;2.20;;;;;;;-3.24;74.43;96129.90;106505;1278;25393;-67
2023/03/18 00:36:15;;;;;;;4.50;2.00;;;;;;;-3.23;74.32;96132.20;106442;1278;25471;-67
2023/03/18 00:38:46;;;;;;;4.10;2.40;;;;;;;-3.25;75.80;96132.64;106369;1278;22687;-67
2023/03/18 00:41:14;;;;;;;4.30;1.90;;;;;;;-3.32;75.41;96129.58;106386;1278;25402;-67
2023/03/18 00:43:48;;;;;;;3.60;1.50;;;;;;;-3.39;74.97;96128.08;106327;1278;22536;-67
2023/03/18 00:46:19;;;;;;;2.90;1.90;;;;;;;-3.44;75.24;96127.98;106229;1278;24220;-67
2023/03/18 00:48:48;;;;;;;3.80;1.80;;;;;;;-3.48;75.60;96126.66;106288;1278;22532;-67
2023/03/18 00:51:19;;;;;;;2.00;1.40;;;;;;;-3.49;75.30;96130.05;106467;1278;22701;-67
2023/03/18 00:53:50;;;;;;;2.40;1.40;;;;;;;-3.52;75.37;96129.42;106469;1266;22806;-67
2023/03/18 00:56:21;;;;;;;2.60;1.60;;;;;;;-3.61;76.62;96129.16;106301;1278;22533;-67
2023/03/18 00:58:51;;;;;;;8.10;3.30;;;;;;;-3.70;77.39;96126.89;106291;1278;22547;-67
2023/03/18 01:01:20;;;;;;;4.00;1.80;;;;;;;-3.74;77.46;96126.37;106455;1278;25312;-67
2023/03/18 01:03:50;;;;;;;4.40;2.30;;;;;;;-3.73;77.11;96124.02;106446;1278;23884;-67
2023/03/18 01:06:27;;;;;;;2.90;1.70;;;;;;;-3.71;77.16;96122.21;106414;1271;22638;-67
2023/03/18 01:08:57;;;;;;;2.90;2.10;;;;;;;-3.68;77.41;96121.45;106440;1278;25378;-67
2023/03/18 01:11:26;;;;;;;5.00;1.90;;;;;;;-3.64;77.52;96122.33;106300;1278;26790;-67
2023/03/18 01:13:56;;;;;;;4.00;2.50;;;;;;;-3.59;77.44;96113.60;106211;1278;22643;-67
2023/03/18 01:16:24;;;;;;;2.80;1.70;;;;;;;-3.57;77.23;96107.87;106336;1278;23149;-67
2023/03/18 01:18:52;;;;;;;3.10;1.90;;;;;;;-3.53;77.48;96100.44;106414;1277;24043;-66
2023/03/18 01:21:21;;;;;;;3.70;2.00;;;;;;;-3.42;77.78;96095.23;106298;1278;24336;-67
2023/03/18 01:23:54;;;;;;;4.10;1.80;;;;;;;-3.40;77.79;96104.11;106456;1278;24258;-67
2023/03/18 01:26:22;;;;;;;4.80;2.20;;;;;;;-3.43;78.40;96101.06;106402;1266;22643;-67
2023/03/18 01:28:52;;;;;;;2.80;1.70;;;;;;;-3.45;78.02;96100.44;106425;1278;24041;-67
2023/03/18 01:31:20;;;;;;;7.30;3.20;;;;;;;-3.44;77.74;96095.87;106445;1278;22527;-67
2023/03/18 01:33:49;;;;;;;9.40;5.10;;;;;;;-3.40;78.32;96094.30;106460;1278;24590;-67
2023/03/18 01:36:17;;;;;;;10.60;5.20;;;;;;;-3.32;78.26;96093.59;106465;1278;25336;-67
2023/03/18 01:38:56;;;;;;;3.70;2.10;;;;;;;-3.31;77.52;96096.42;106339;1278;24286;-67
2023/03/18 01:41:25;;;;;;;4.20;2.10;;;;;;;-3.26;77.74;96097.84;106330;1278;22606;-67
2023/03/18 01:43:54;;;;;;;3.30;1.80;;;;;;;-3.21;77.48;96103.55;106288;1278;22565;-67
2023/03/18 01:46:31;;;;;;;3.20;1.90;;;;;;;-3.19;77.09;96103.09;106239;1278;23885;-67
2023/03/18 01:49:04;;;;;;;5.50;2.20;;;;;;;-3.15;77.01;96100.86;106333;1278;23092;-67
2023/03/18 01:51:32;;;;;;;5.60;2.40;;;;;;;-3.15;76.61;96101.23;106293;1278;25686;-67
2023/03/18 01:54:03;;;;;;;4.80;2.40;;;;;;;-3.25;75.98;96101.65;106277;1278;24459;-67
2023/03/18 01:56:35;;;;;;;3.20;2.20;;;;;;;-3.30;76.34;96097.16;106521;1278;22634;-67
2023/03/18 01:59:06;;;;;;;5.80;2.10;;;;;;;-3.33;76.45;96100.09;106356;1278;24208;-67
2023/03/18 02:01:48;;;;;;;6.10;2.40;;;;;;;-3.49;77.76;96104.57;106391;1278;24254;-67
2023/03/18 02:04:18;;;;;;;7.90;2.90;;;;;;;-3.63;77.94;96102.77;106463;1278;23272;-67
2023/03/18 02:06:46;;;;;;;5.40;3.00;;;;;;;-3.73;77.35;96110.75;106274;1278;24236;-67
2023/03/18 02:09:16;;;;;;;6.30;3.00;;;;;;;-3.82;77.27;96108.33;106270;1278;22553;-67
2023/03/18 02:11:48;;;;;;;7.70;3.70;;;;;;;-3.82;77.56;96111.89;106308;1278;22641;-67
2023/03/18 02:14:25;;;;;;;6.90;3.20;;;;;;;-3.88;77.82;96112.84;106292;1278;22778;-67
2023/03/18 02:17:07;;;;;;;11.30;4.70;;;;;;;-3.95;78.22;96111.36;106606;1275;22637;-67
2023/03/18 02:19:55;;;;;;;7.00;3.40;;;;;;;-3.95;77.80;96111.14;106613;1275;24253;-67
2023/03/18 02:22:38;;;;;;;10.30;4.30;;;;;;;-3.99;78.51;96111.00;106666;1275;26590;-67
2023/03/18 02:25:18;;;;;;;8.80;3.60;;;;;;;-4.05;79.97;96110.02;106621;1275;24374;-67
2023/03/18 02:27:52;;;;;;;5.60;3.30;;;;;;;-4.10;79.02;96113.73;106647;1275;22694;-67
2023/03/18 02:30:26;;;;;;;7.20;3.80;;;;;;;-4.12;78.42;96116.56;106628;1275;24262;-67
2023/03/18 02:32:57;;;;;;;5.60;3.20;;;;;;;-4.11;78.54;96114.71;106613;1275;24437;-67
2023/03/18 02:35:28;;;;;;;5.10;2.80;;;;;;;-4.11;78.34;96114.73;106653;1275;23923;-67
2023/03/18 02:37:58;;;;;;;3.70;2.10;;;;;;;-4.08;78.56;96116.91;106607;1275;24203;-67
2023/03/18 02:40:26;;;;;;;4.80;2.70;;;;;;;-4.08;78.61;96113.32;106645;1275;22528;-67
2023/03/18 02:42:56;;;;;;;4.40;2.90;;;;;;;-4.09;79.39;96112.75;106646;1275;25398;-65
2023/03/18 02:46:05;;;;;;;4.40;2.10;;;;;;;-4.10;79.79;96112.17;106679;1275;26730;-65
2023/03/18 02:48:38;;;;;;;3.60;2.10;;;;;;;-4.09;79.35;96113.25;106816;1275;22633;-65
2023/03/18 02:51:08;;;;;;;4.20;2.40;;;;;;;-4.03;79.25;96111.30;106641;1275;22595;-64
2023/03/18 02:53:37;;;;;;;3.80;2.60;;;;;;;-3.97;79.12;96110.73;106618;1275;22563;-64
2023/03/18 02:56:07;;;;;;;5.50;2.70;;;;;;;-3.99;78.54;96112.67;106678;1275;22645;-65
2023/03/18 02:58:36;;;;;;;4.80;2.50;;;;;;;-4.00;78.89;96118.00;106615;1275;25312;-64
2023/03/18 03:01:06;;;;;;;6.60;2.80;;;;;;;-3.93;79.54;96115.23;106600;1275;22526;-65
2023/03/18 03:03:36;;;;;;;7.40;3.40;;;;;;;-3.96;79.30;96118.48;106621;1275;22818;-64
2023/03/18 03:06:06;;;;;;;5.40;2.90;;;;;;;-3.97;79.18;96118.10;106673;1274;22741;-66
2023/03/18 03:08:34;;;;;;;3.70;2.20;;;;;;;-3.92;79.37;96114.58;106654;1275;22533;-66
2023/03/18 03:11:04;;;;;;;4.30;2.40;;;;;;;-3.92;79.13;96114.73;106614;1275;22684;-66
2023/03/18 03:13:35;;;;;;;3.20;2.40;;;;;;;-3.98;78.96;96117.05;106608;1274;22647;-65
2023/03/18 03:16:04;;;;;;;5.70;2.70;;;;;;;-3.95;78.89;96119.25;106692;1275;22532;-66
2023/03/18 03:18:34;;;;;;;3.30;2.20;;;;;;;-3.95;78.81;96121.81;106687;1275;22681;-66
2023/03/18 03:21:03;;;;;;;3.30;1.80;;;;;;;-3.93;78.98;96117.95;106620;1275;22536;-66
2023/03/18 03:23:32;;;;;;;4.00;2.70;;;;;;;-3.96;78.50;96122.80;106669;1275;22527;-66
2023/03/18 03:26:01;;;;;;;4.60;2.50;;;;;;;-3.92;79.01;96121.95;106604;1275;25510;-66
2023/03/18 03:28:31;;;;;;;3.40;2.30;;;;;;;-3.95;78.30;96123.17;106733;1275;23069;-67
2023/03/18 03:31:00;;;;;;;3.90;2.40;;;;;;;-4.06;78.61;96122.65;106576;1275;24211;-66
2023/03/18 03:33:29;;;;;;;7.00;4.10;;;;;;;-4.19;78.43;96128.63;106656;1275;24256;-66
2023/03/18 03:35:58;;;;;;;7.60;3.80;;;;;;;-4.26;78.74;96127.09;106594;1274;24198;-66
2023/03/18 03:38:26;;;;;;;5.70;3.40;;;;;;;-4.28;79.31;96130.40;106611;1275;22537;-66
2023/03/18 03:40:55;;;;;;;7.90;4.10;;;;;;;-4.31;79.31;96131.67;106677;1274;24206;-66
2023/03/18 03:43:23;;;;;;;5.90;2.90;;;;;;;-4.32;79.01;96125.94;106614;1275;25625;-66
2023/03/18 03:45:51;;;;;;;5.60;3.00;;;;;;;-4.35;78.99;96129.08;106617;1275;22571;-66
2023/03/18 03:48:20;;;;;;;6.40;3.60;;;;;;;-4.35;78.91;96132.17;106629;1275;22680;-66
2023/03/18 03:50:50;;;;;;;5.30;3.40;;;;;;;-4.32;79.38;96135.73;106750;1274;24192;-66
2023/03/18 03:53:19;;;;;;;8.80;3.90;;;;;;;-4.38;79.99;96133.75;106678;1275;24247;-66
2023/03/18 03:55:48;;;;;;;5.40;3.20;;;;;;;-4.46;80.79;96135.77;106621;1275;22527;-66
2023/03/18 03:58:16;;;;;;;9.30;3.50;;;;;;;-4.55;79.78;96141.55;106610;1271;25461;-66
2023/03/18 04:00:44;;;;;;;6.30;3.10;;;;;;;-4.57;79.53;96145.23;106670;1275;22585;-66
2023/03/18 04:03:13;;;;;;;4.10;2.30;;;;;;;-4.59;79.32;96143.42;106594;1275;25375;-66
2023/03/18 04:05:42;;;;;;;5.10;2.50;;;;;;;-4.56;79.19;96150.73;106679;1274;23872;-66
2023/03/18 04:08:10;;;;;;;5.50;2.40;;;;;;;-4.56;79.06;96150.75;106680;1275;24230;-66
2023/03/18 04:10:39;;;;;;;5.20;2.60;;;;;;;-4.56;79.01;96148.71;106644;1275;22614;-66
2023/03/18 04:13:09;;;;;;;4.00;2.10;;;;;;;-4.59;78.96;96150.95;106650;1260;25392;-66
2023/03/18 04:15:39;;;;;;;4.20;2.00;;;;;;;-4.65;78.92;96151.66;106641;1275;25322;-66
2023/03/18 04:18:10;;;;;;;3.40;2.10;;;;;;;-4.75;78.73;96151.04;106648;1275;22574;-66
2023/03/18 04:20:39;;;;;;;2.30;1.80;;;;;;;-4.81;78.91;96151.27;106645;1275;25480;-66
2023/03/18 04:23:32;;;;;;;4.00;2.20;;;;;;;-4.82;78.88;96151.55;106587;1274;22816;-66
2023/03/18 04:26:00;;;;;;;4.30;2.80;;;;;;;-4.81;78.99;96148.34;106680;1275;22595;-66
2023/03/18 04:28:29;;;;;;;3.40;2.30;;;;;;;-4.80;79.40;96146.33;106618;1274;22534;-66
2023/03/18 04:30:58;;;;;;;4.50;2.50;;;;;;;-4.82;79.02;96147.42;106654;1275;24441;-66
2023/03/18 04:33:26;;;;;;;3.00;1.30;;;;;;;-4.86;78.88;96146.38;106717;1274;22675;-66
2023/03/18 04:35:55;;;;;;;6.10;2.30;;;;;;;-4.90;78.85;96150.29;106636;1275;24361;-66
2023/03/18 04:38:23;;;;;;;9.60;3.40;;;;;;;-4.93;79.78;96149.45;106726;1275;25261;-66
2023/03/18 04:40:52;;;;;;;6.00;3.20;;;;;;;-4.94;81.49;96152.48;106679;1274;25630;-67
2023/03/18 04:43:21;;;;;;;9.60;4.70;;;;;;;-4.96;81.38;96159.61;106695;1275;22536;-66
2023/03/18 04:45:50;;;;;;;12.80;6.10;;;;;;;-4.94;81.54;96156.42;106672;1275;23877;-66
2023/03/18 04:48:19;;;;;;;11.90;6.00;;;;;;;-4.92;82.14;96156.71;106658;1274;22776;-66
2023/03/18 04:50:47;;;;;;;12.70;6.30;;;;;;;-4.93;81.25;96158.21;106582;1274;22533;-66
2023/03/18 04:53:20;;;;;;;19.50;7.70;;;;;;;-4.90;81.61;96155.12;106755;1275;22559;-66
2023/03/18 04:55:50;;;;;;;22.80;11.10;;;;;;;-4.86;82.55;96154.30;106591;1274;22530;-66
2023/03/18 04:58:20;;;;;;;7.00;3.70;;;;;;;-4.78;82.43;96161.20;106830;1260;25703;-66
2023/03/18 05:01:12;;;;;;;8.10;3.80;;;;;;;-4.62;82.44;96162.30;106566;1275;22523;-66
2023/03/18 05:03:40;;;;;;;4.20;2.30;;;;;;;-4.42;82.18;96158.10;106648;1275;22569;-66
2023/03/18 05:06:21;;;;;;;16.20;8.40;;;;;;;-4.28;81.63;96153.98;106660;1274;25213;-66
2023/03/18 05:08:56;;;;;;;14.70;6.50;;;;;;;-4.21;81.17;96157.38;106568;1274;24233;-66
2023/03/18 05:11:27;;;;;;;16.90;8.60;;;;;;;-4.16;81.43;96158.49;106692;1275;25453;-66
2023/03/18 05:13:56;;;;;;;32.90;15.50;;;;;;;-4.00;81.39;96156.14;106588;1275;22686;-66
2023/03/18 05:16:25;;;;;;;26.80;15.30;;;;;;;-3.91;80.59;96158.94;106698;1275;22810;-66
2023/03/18 05:18:53;;;;;;;28.80;15.50;;;;;;;-3.84;80.34;96159.08;106634;1275;25436;-66
2023/03/18 05:21:21;;;;;;;30.10;15.80;;;;;;;-3.78;80.01;96164.02;106638;1275;24542;-66
2023/03/18 05:23:50;;;;;;;27.20;13.20;;;;;;;-3.66;79.94;96164.00;106596;1275;22520;-66
2023/03/18 05:26:19;;;;;;;31.60;15.50;;;;;;;-3.54;79.89;96167.67;106691;1274;25414;-67
2023/03/18 05:28:47;;;;;;;30.90;14.90;;;;;;;-3.47;79.33;96165.55;106656;1275;25600;-67
2023/03/18 05:31:42;;;;;;;30.20;14.50;;;;;;;-3.41;79.31;96164.77;106426;1275;24254;-66
2023/03/18 05:34:12;;;;;;;24.70;13.70;;;;;;;-3.40;79.04;96166.73;106703;1275;22534;-66
2023/03/18 05:36:42;;;;;;;22.20;12.00;;;;;;;-3.47;79.27;96170.69;106600;1274;23011;-66
2023/03/18 05:39:11;;;;;;;21.20;10.90;;;;;;;-3.49;79.36;96170.99;106582;1275;23978;-66
2023/03/18 05:41:40;;;;;;;19.20;10.30;;;;;;;-3.49;79.55;96168.56;106711;1275;22560;-66
2023/03/18 05:44:09;;;;;;;20.20;10.20;;;;;;;-3.46;79.80;96169.55;106696;1275;22517;-66
2023/03/18 05:46:39;;;;;;;18.20;9.60;;;;;;;-3.41;79.96;96171.64;106685;1259;22557;-66
2023/03/18 05:49:11;;;;;;;21.20;10.40;;;;;;;-3.37;80.02;96171.84;106667;1275;22609;-65
2023/03/18 05:51:50;;;;;;;17.60;9.70;;;;;;;-3.30;79.83;96170.41;106640;1275;22774;-66
2023/03/18 05:54:30;;;;;;;16.60;9.40;;;;;;;-3.19;79.88;96168.67;106674;1275;23882;-66
2023/03/18 05:56:58;;;;;;;21.10;11.70;;;;;;;-3.09;79.71;96169.80;106585;1275;25363;-66
2023/03/18 05:59:29;;;;;;;17.90;9.20;;;;;;;-2.98;79.54;96165.94;106613;1275;22676;-66
2023/03/18 06:02:00;;;;;;;80.90;30.50;;;;;;;-2.91;79.34;96163.51;106713;1275;22643;-66
2023/03/18 06:04:29;;;;;;;25.70;12.60;;;;;;;-2.80;79.16;96161.02;106669;1275;22530;-66
2023/03/18 06:06:58;;;;;;;24.40;11.60;;;;;;;-2.74;79.00;96158.15;106712;1275;25399;-66
2023/03/18 06:09:26;;;;;;;18.10;10.30;;;;;;;-2.66;78.91;96158.83;106632;1275;22609;-66
2023/03/18 06:11:54;;;;;;;16.00;9.50;;;;;;;-2.58;78.64;96151.56;106605;1275;24123;-66
2023/03/18 06:14:28;;;;;;;21.80;10.90;;;;;;;-2.48;78.45;96154.23;106677;1275;25354;-66
2023/03/18 06:16:58;;;;;;;21.00;9.70;;;;;;;-2.40;78.15;96155.94;106550;1275;22526;-66
2023/03/18 06:19:29;;;;;;;14.30;6.90;;;;;;;-2.31;78.03;96157.14;106703;1271;24283;-66
2023/03/18 06:21:58;;;;;;;16.50;8.90;;;;;;;-2.20;78.01;96151.39;106809;1275;22520;-66
2023/03/18 06:24:26;;;;;;;11.60;7.70;;;;;;;-2.07;77.91;96157.22;106660;1275;22577;-66
2023/03/18 06:26:56;;;;;;;15.90;8.10;;;;;;;-1.96;77.54;96153.34;106755;1275;24264;-67
2023/03/18 06:29:24;;;;;;;14.00;6.50;;;;;;;-1.84;77.36;96156.21;106564;1274;22533;-66
2023/03/18 06:31:53;;;;;;;15.60;8.80;;;;;;;-1.72;77.14;96158.20;106602;1274;22634;-67
2023/03/18 06:34:24;;;;;;;12.50;6.00;;;;;;;-1.61;76.77;96157.08;106666;1274;22959;-67
2023/03/18 06:36:52;;;;;;;7.70;4.40;;;;;;;-1.49;76.61;96157.88;106707;1274;22580;-67
2023/03/18 06:39:20;;;;;;;12.10;5.20;;;;;;;-1.37;76.31;96160.02;106550;1274;22527;-67
2023/03/18 06:41:50;;;;;;;8.00;4.80;;;;;;;-1.25;76.05;96154.93;106548;1274;25497;-66
2023/03/18 06:44:38;;;;;;;13.00;7.50;;;;;;;-1.10;75.68;96157.88;106692;1274;22601;-67
2023/03/18 06:47:18;;;;;;;32.50;20.40;;;;;;;-0.98;74.17;96155.15;106659;1274;24324;-67
2023/03/18 06:49:52;;;;;;;28.90;16.50;;;;;;;-0.87;73.72;96156.42;106674;1275;24467;-67
2023/03/18 06:52:27;;;;;;;20.50;12.60;;;;;;;-0.74;74.28;96157.39;106656;1274;22533;-66
2023/03/18 06:54:59;;;;;;;43.20;21.20;;;;;;;-0.57;74.47;96150.52;106608;1274;24334;-67
2023/03/18 06:57:28;;;;;;;30.40;17.30;;;;;;;-0.43;74.10;96148.02;106655;1274;25385;-67
2023/03/18 06:59:57;;;;;;;21.50;10.90;;;;;;;-0.30;73.24;96149.32;106724;1274;22528;-67
2023/03/18 07:02:26;;;;;;;23.20;14.60;;;;;;;-0.19;72.29;96148.29;106596;1274;24195;-67
2023/03/18 07:04:56;;;;;;;9.10;5.60;;;;;;;-0.08;71.77;96147.08;106637;1274;24210;-67
2023/03/18 07:07:24;;;;;;;13.80;9.40;;;;;;;0.02;71.33;96146.67;106584;1274;24254;-68
2023/03/18 07:09:53;;;;;;;15.50;10.20;;;;;;;0.10;70.78;96146.77;106660;1274;24220;-68
2023/03/18 07:12:22;;;;;;;11.30;7.20;;;;;;;0.22;71.30;96147.13;106731;1274;25480;-68
2023/03/18 07:14:52;;;;;;;7.30;4.60;;;;;;;0.35;70.82;96151.48;106549;1274;24254;-68
2023/03/18 07:17:21;;;;;;;10.60;5.50;;;;;;;0.47;70.99;96151.33;106636;1275;22645;-68
2023/03/18 07:19:50;;;;;;;7.20;3.80;;;;;;;0.63;71.16;96149.36;106743;1274;25397;-68
2023/03/18 07:22:19;;;;;;;6.60;3.60;;;;;;;0.80;70.83;96148.79;106625;1275;25325;-68
2023/03/18 07:24:47;;;;;;;7.60;3.80;;;;;;;0.94;69.95;96148.67;106633;1275;22523;-68
2023/03/18 07:27:16;;;;;;;6.20;3.40;;;;;;;1.06;69.87;96150.73;106652;1274;22963;-68
2023/03/18 07:29:44;;;;;;;5.00;3.00;;;;;;;1.17;68.61;96148.43;106698;1275;24377;-69
2023/03/18 07:32:12;;;;;;;6.70;3.50;;;;;;;1.30;68.85;96143.55;106657;1274;22544;-69
2023/03/18 07:34:42;;;;;;;6.40;3.50;;;;;;;1.40;67.18;96145.39;106647;1274;25565;-68
2023/03/18 07:37:10;;;;;;;5.40;3.40;;;;;;;1.42;65.32;96145.26;106582;1265;22631;-69
2023/03/18 07:39:38;;;;;;;4.90;3.30;;;;;;;1.45;65.39;96145.85;106699;1275;24478;-69
2023/03/18 07:42:08;;;;;;;8.20;4.10;;;;;;;1.51;65.59;96146.52;106733;1274;22564;-69
2023/03/18 07:44:36;;;;;;;6.90;3.40;;;;;;;1.61;65.60;96147.81;106831;1275;24231;-69
2023/03/18 07:47:05;;;;;;;6.40;3.50;;;;;;;1.72;64.42;96149.98;106694;1275;22462;-68
2023/03/18 07:49:33;;;;;;;7.10;3.80;;;;;;;1.82;64.27;96148.31;106710;1275;22590;-69
2023/03/18 07:52:02;;;;;;;8.30;4.50;;;;;;;1.88;63.56;96147.77;106672;1274;22697;-69
2023/03/18 07:54:30;;;;;;;8.50;3.50;;;;;;;1.94;63.15;96146.02;106649;1274;22633;-69
2023/03/18 07:56:59;;;;;;;6.10;4.00;;;;;;;2.01;62.99;96146.86;106640;1275;24266;-69
2023/03/18 07:59:27;;;;;;;7.40;4.70;;;;;;;2.14;62.70;96146.63;106589;1275;23239;-69
2023/03/18 08:01:55;;;;;;;6.90;3.90;;;;;;;2.26;62.60;96147.41;106669;1275;25460;-68
2023/03/18 08:04:23;;;;;;;7.30;4.20;;;;;;;2.35;61.23;96146.05;106624;1274;22650;-69
2023/03/18 08:06:52;;;;;;;6.50;4.30;;;;;;;2.45;61.38;96148.19;106630;1274;23149;-68
2023/03/18 08:09:20;;;;;;;6.30;3.90;;;;;;;2.55;59.70;96146.14;106587;1275;25365;-69
2023/03/18 08:11:48;;;;;;;7.10;4.10;;;;;;;2.67;60.06;96147.77;106671;1270;22729;-69
2023/03/18 08:14:16;;;;;;;8.00;4.30;;;;;;;2.82;60.78;96145.65;106745;1251;22627;-69
2023/03/18 08:16:45;;;;;;;10.70;4.80;;;;;;;2.94;58.72;96144.33;106670;1274;22780;-68
2023/03/18 08:19:13;;;;;;;79.50;37.00;;;;;;;3.02;57.27;96142.75;106689;1275;24370;-69
2023/03/18 08:21:42;;;;;;;16.40;11.50;;;;;;;3.02;56.41;96140.83;106583;1275;22656;-69
2023/03/18 08:24:10;;;;;;;9.10;5.20;;;;;;;3.14;57.59;96140.89;106662;1275;24376;-69
2023/03/18 08:26:39;;;;;;;7.50;4.30;;;;;;;3.26;55.98;96135.36;106755;1275;22561;-69
2023/03/18 08:29:07;;;;;;;8.60;4.70;;;;;;;3.32;55.46;96134.45;106676;1274;22931;-69
2023/03/18 08:31:35;;;;;;;5.20;3.80;;;;;;;3.39;56.23;96133.87;106638;1274;22540;-69
2023/03/18 08:34:04;;;;;;;8.60;5.60;;;;;;;3.53;57.30;96134.47;106573;1274;22573;-69
2023/03/18 08:36:32;;;;;;;16.70;10.40;;;;;;;3.57;54.92;96129.31;106658;1274;22518;-69
2023/03/18 08:39:00;;;;;;;22.90;13.70;;;;;;;3.58;55.20;96133.34;106709;1274;22531;-69
2023/03/18 08:41:29;;;;;;;14.20;7.90;;;;;;;3.64;55.35;96130.48;106692;1274;22760;-69
2023/03/18 08:43:57;;;;;;;11.80;6.50;;;;;;;3.77;55.97;96130.70;106678;1275;25207;-69
2023/03/18 08:46:26;;;;;;;14.20;9.80;;;;;;;3.83;54.80;96131.99;106684;1251;22524;-69
2023/03/18 08:48:54;;;;;;;16.70;10.60;;;;;;;3.83;54.00;96127.83;106673;1274;24051;-69
2023/03/18 08:51:22;;;;;;;9.50;6.60;;;;;;;3.95;55.62;96128.02;106659;1274;24077;-69
2023/03/18 08:53:51;;;;;;;13.30;8.00;;;;;;;4.09;54.96;96126.48;106684;1274;22531;-69
2023/03/18 08:56:19;;;;;;;13.80;9.10;;;;;;;4.21;55.00;96128.22;106573;1275;23730;-69
2023/03/18 08:58:47;;;;;;;65.40;35.80;;;;;;;4.37;55.47;96125.50;106696;1274;24258;-68
2023/03/18 09:01:18;;;;;;;18.20;12.30;;;;;;;4.55;55.14;96121.91;106700;1274;22514;-69
2023/03/18 09:03:48;;;;;;;13.80;6.20;;;;;;;4.68;54.30;96122.94;106670;1275;22524;-69
2023/03/18 09:06:17;;;;;;;8.30;4.80;;;;;;;4.83;54.85;96122.44;106747;1274;23217;-69
2023/03/18 09:08:45;;;;;;;8.50;5.60;;;;;;;4.98;55.52;96117.73;106757;1274;22520;-69
2023/03/18 09:11:13;;;;;;;10.40;6.30;;;;;;;5.09;54.11;96118.90;106747;1275;22538;-69
2023/03/18 09:13:41;;;;;;;14.00;7.40;;;;;;;5.22;54.61;96117.65;106700;1275;22527;-69
2023/03/18 09:16:10;;;;;;;13.50;8.90;;;;;;;5.39;54.61;96112.58;106617;1274;25381;-69
2023/03/18 09:18:39;;;;;;;15.30;9.20;;;;;;;5.48;53.41;96113.17;106658;1274;22918;-69
2023/03/18 09:21:11;;;;;;;26.90;19.10;;;;;;;5.52;52.59;96109.91;106724;1274;21746;-69
2023/03/18 09:23:40;;;;;;;27.50;18.00;;;;;;;5.58;52.98;96110.14;106666;1274;26640;-69
2023/03/18 09:26:08;;;;;;;34.80;23.50;;;;;;;5.76;53.93;96110.13;106660;1274;24203;-69
2023/03/18 09:28:36;;;;;;;80.10;59.30;;;;;;;5.85;51.97;96110.02;106655;1275;22570;-69
2023/03/18 09:31:05;;;;;;;35.00;25.90;;;;;;;5.92;52.90;96110.08;106648;1259;24370;-68
2023/03/18 09:33:35;;;;;;;25.00;17.90;;;;;;;6.01;52.66;96111.92;106764;1274;22643;-69
2023/03/18 09:36:04;;;;;;;16.40;11.40;;;;;;;6.08;52.13;96111.11;106713;1275;22535;-69
2023/03/18 09:38:34;;;;;;;11.00;7.70;;;;;;;6.27;53.31;96112.81;106683;1274;25271;-69
2023/03/18 09:41:11;;;;;;;13.70;9.00;;;;;;;6.43;52.17;96109.77;106636;1274;24357;-69
2023/03/18 09:44:07;;;;;;;13.20;7.80;;;;;;;6.56;52.56;96104.75;106981;1274;25474;-69
2023/03/18 09:46:57;;;;;;;10.80;7.50;;;;;;;6.79;52.12;96103.82;106945;1275;22518;-68
2023/03/18 09:49:49;;;;;;;11.30;8.30;;;;;;;6.99;52.58;96101.63;106714;1275;22524;-69
2023/03/18 09:52:43;;;;;;;10.90;5.00;;;;;;;7.21;51.69;96102.92;106754;1275;22670;-69
2023/03/18 09:55:26;;;;;;;11.10;6.00;;;;;;;7.35;51.41;96098.23;106691;1274;22542;-68
2023/03/18 09:58:01;;;;;;;14.80;6.90;;;;;;;7.41;49.76;96099.10;106683;1274;22521;-69
2023/03/18 10:00:37;;;;;;;13.20;8.40;;;;;;;7.44;48.90;96097.88;106609;1275;22636;-69
2023/03/18 10:03:26;;;;;;;12.60;7.90;;;;;;;7.50;49.42;96092.81;106717;1274;25407;-69
2023/03/18 10:06:06;;;;;;;11.90;7.30;;;;;;;7.57;48.42;96091.07;106703;1274;22635;-69
2023/03/18 10:08:42;;;;;;;11.90;6.50;;;;;;;7.61;48.19;96086.88;106683;1274;22543;-69
2023/03/18 10:11:29;;;;;;;13.10;7.40;;;;;;;7.76;48.90;96085.65;106706;1275;22526;-68
2023/03/18 10:14:09;;;;;;;10.60;6.70;;;;;;;7.95;50.01;96074.27;106695;1275;22658;-68
2023/03/18 10:16:52;;;;;;;12.60;7.60;;;;;;;8.10;48.15;96075.30;106548;1275;22623;-68
2023/03/18 10:19:21;;;;;;;9.40;5.80;;;;;;;8.25;48.02;96071.25;106759;1263;22731;-69
2023/03/18 10:21:53;;;;;;;9.80;6.70;;;;;;;8.43;46.84;96069.13;106215;1275;651528;-69
2023/03/18 10:24:37;;;;;;;8.70;6.60;;;;;;;8.49;46.15;96070.52;106684;1275;24192;-68
2023/03/18 10:27:41;;;;;;;22.50;13.50;;;;;;;8.55;47.13;96067.53;106711;1275;25394;-69
2023/03/18 10:30:44;;;;;;;10.50;7.60;;;;;;;8.67;45.63;96065.38;106629;1275;22564;-68
2023/03/18 10:33:35;;;;;;;9.80;6.50;;;;;;;8.78;45.37;96063.58;106623;1275;25399;-68
2023/03/18 10:36:23;;;;;;;11.30;5.90;;;;;;;8.76;44.73;96066.40;106751;1275;22650;-68
2023/03/18 10:38:54;;;;;;;8.60;5.30;;;;;;;8.91;43.92;96062.48;106730;1274;23135;-69
2023/03/18 10:41:32;;;;;;;13.00;7.30;;;;;;;9.09;43.58;96064.31;106694;1251;24259;-69
2023/03/18 10:44:36;;;;;;;6.20;4.20;;;;;;;9.18;44.08;96055.85;106637;1275;22529;-69
2023/03/18 10:47:18;;;;;;;9.20;4.80;;;;;;;9.46;44.62;96059.17;106691;1274;22550;-68
2023/03/18 10:50:01;;;;;;;10.10;5.60;;;;;;;9.71;44.41;96058.30;106699;1275;22644;-68
2023/03/18 10:52:36;;;;;;;8.70;4.30;;;;;;;9.86;41.96;96051.14;106613;1275;22617;-69
2023/03/18 10:55:16;;;;;;;7.90;4.60;;;;;;;10.00;41.85;96049.96;106657;1275;25473;-68
2023/03/18 10:57:44;;;;;;;7.70;3.70;;;;;;;10.13;41.98;96050.73;106689;1275;24263;-69
2023/03/18 11:00:33;;;;;;;5.10;2.80;;;;;;;10.28;39.93;96046.21;106718;1275;22516;-68
2023/03/18 11:03:03;;;;;;;6.50;4.80;;;;;;;10.48;39.55;96039.67;106685;1267;24202;-69
2023/03/18 11:05:36;;;;;;;9.00;4.60;;;;;;;10.73;38.87;96030.59;106697;1275;22536;-70
2023/03/18 11:08:10;;;;;;;4.80;2.80;;;;;;;11.19;40.77;96030.33;106669;1274;22789;-69
2023/03/18 11:10:45;;;;;;;5.70;3.30;;;;;;;11.76;38.59;96023.48;106717;1275;24360;-68
2023/03/18 11:13:18;;;;;;;10.50;4.80;;;;;;;12.26;37.79;96018.77;106698;1274;22524;-69
2023/03/18 11:15:58;;;;;;;30.30;14.90;;;;;;;12.65;36.83;96019.08;106654;1274;23882;-69
2023/03/18 11:18:26;;;;;;;10.60;5.60;;;;;;;12.72;37.50;96014.55;106701;1275;24240;-70
2023/03/18 11:21:00;;;;;;;10.90;6.30;;;;;;;13.15;37.71;96015.77;106978;1274;22609;-67
2023/03/18 11:26:23;;;;;;;8.10;4.10;;;;;;;13.73;34.14;96010.55;106957;1274;25247;-68
2023/03/18 11:29:08;;;;;;;8.40;4.40;;;;;;;14.01;32.61;96008.10;106611;1274;22533;-68
2023/03/18 11:31:50;;;;;;;10.00;5.80;;;;;;;14.37;33.23;96000.60;106940;1275;22535;-67
2023/03/18 11:34:18;;;;;;;4.20;2.90;;;;;;;14.68;32.55;95998.20;106649;1274;25311;-68
2023/03/18 11:37:04;;;;;;;4.80;2.80;;;;;;;15.03;30.66;95996.83;106665;1274;22523;-67
2023/03/18 11:39:36;;;;;;;3.70;2.50;;;;;;;15.44;30.77;95990.45;106703;1275;25336;-68
2023/03/18 11:42:21;;;;;;;4.40;2.00;;;;;;;15.55;28.79;95992.78;106640;1274;22758;-68
2023/03/18 11:44:54;;;;;;;5.10;3.20;;;;;;;15.66;29.94;95986.92;106633;1274;22523;-67
2023/03/18 11:47:27;;;;;;;3.30;2.70;;;;;;;16.04;29.48;95983.02;106665;1274;24337;-67
2023/03/18 11:49:56;;;;;;;2.80;2.00;;;;;;;16.20;28.41;95985.33;106712;1275;25371;-67